sensor_id;sensor_type;location;lat;lon;timestamp;pressure;altitude;pressure_sealevel;temperature;humidity
76260;BME280;65076;52.362;6.588;2022-12-13T00:01:50;101333.44;;;-0.02;69.28
76260;BME280;65076;52.362;6.588;2022-12-13T00:04:21;101327.22;;;-0.04;68.70
76260;BME280;65076;52.362;6.588;2022-12-13T00:06:51;101329.88;;;-0.04;69.20
76260;BME280;65076;52.362;6.588;2022-12-13T00:09:21;101320.13;;;-0.05;69.01
76260;BME280;65076;52.362;6.588;2022-12-13T00:11:49;101319.25;;;-0.06;69.55
76260;BME280;65076;52.362;6.588;2022-12-13T00:14:17;101319.25;;;-0.09;69.47
76260;BME280;65076;52.362;6.588;2022-12-13T00:16:46;101320.13;;;-0.05;69.06
76260;BME280;65076;52.362;6.588;2022-12-13T00:19:16;101314.84;;;-0.01;69.01
76260;BME280;65076;52.362;6.588;2022-12-13T00:21:46;101311.28;;;0.07;68.98
76260;BME280;65076;52.362;6.588;2022-12-13T00:24:15;101309.47;;;-0.05;68.78
76260;BME280;65076;52.362;6.588;2022-12-13T00:26:43;101303.28;;;-0.07;68.58
76260;BME280;65076;52.362;6.588;2022-12-13T00:29:12;101305.06;;;-0.05;68.15
76260;BME280;65076;52.362;6.588;2022-12-13T00:31:40;101314.81;;;-0.08;68.07
76260;BME280;65076;52.362;6.588;2022-12-13T00:34:25;101307.69;;;-0.23;67.81
76260;BME280;65076;52.362;6.588;2022-12-13T00:36:54;101314.63;;;-0.52;68.47
76260;BME280;65076;52.362;6.588;2022-12-13T00:39:24;101308.50;;;-0.42;68.57
76260;BME280;65076;52.362;6.588;2022-12-13T00:41:51;101304.06;;;-0.45;68.76
76260;BME280;65076;52.362;6.588;2022-12-13T00:44:19;101301.34;;;-0.55;69.10
76260;BME280;65076;52.362;6.588;2022-12-13T00:46:47;101302.25;;;-0.52;69.33
76260;BME280;65076;52.362;6.588;2022-12-13T00:49:17;101310.25;;;-0.53;68.61
76260;BME280;65076;52.362;6.588;2022-12-13T00:51:46;101310.25;;;-0.53;68.30
76260;BME280;65076;52.362;6.588;2022-12-13T00:54:16;101303.13;;;-0.54;68.20
76260;BME280;65076;52.362;6.588;2022-12-13T00:56:46;101301.34;;;-0.58;68.47
76260;BME280;65076;52.362;6.588;2022-12-13T00:59:16;101294.22;;;-0.65;67.98
76260;BME280;65076;52.362;6.588;2022-12-13T01:01:44;101298.63;;;-0.75;68.41
76260;BME280;65076;52.362;6.588;2022-12-13T01:04:12;101288.00;;;-0.75;68.08
76260;BME280;65076;52.362;6.588;2022-12-13T01:06:42;101291.56;;;-0.67;67.54
76260;BME280;65076;52.362;6.588;2022-12-13T01:09:16;101294.22;;;-0.62;68.03
76260;BME280;65076;52.362;6.588;2022-12-13T01:11:46;101295.13;;;-0.63;67.45
76260;BME280;65076;52.362;6.588;2022-12-13T01:14:16;101291.56;;;-0.70;67.65
76260;BME280;65076;52.362;6.588;2022-12-13T01:16:45;101292.44;;;-0.74;68.00
76260;BME280;65076;52.362;6.588;2022-12-13T01:19:13;101295.88;;;-0.89;67.45
76260;BME280;65076;52.362;6.588;2022-12-13T01:21:41;101300.28;;;-0.94;67.17
76260;BME280;65076;52.362;6.588;2022-12-13T01:24:09;101286.13;;;-0.93;67.67
76260;BME280;65076;52.362;6.588;2022-12-13T01:26:39;101288.78;;;-0.88;67.80
76260;BME280;65076;52.362;6.588;2022-12-13T01:29:07;101295.88;;;-0.87;67.80
76260;BME280;65076;52.362;6.588;2022-12-13T01:31:36;101297.69;;;-0.84;68.42
76260;BME280;65076;52.362;6.588;2022-12-13T01:34:07;101294.09;;;-0.88;67.83
76260;BME280;65076;52.362;6.588;2022-12-13T01:36:37;101302.97;;;-0.86;67.78
76260;BME280;65076;52.362;6.588;2022-12-13T01:39:07;101306.50;;;-0.87;68.10
76260;BME280;65076;52.362;6.588;2022-12-13T01:41:42;101307.38;;;-0.91;67.84
76260;BME280;65076;52.362;6.588;2022-12-13T01:44:57;101308.28;;;-0.88;67.77
76260;BME280;65076;52.362;6.588;2022-12-13T01:47:32;101305.47;;;-1.13;68.77
76260;BME280;65076;52.362;6.588;2022-12-13T01:50:08;101304.59;;;-1.09;68.92
76260;BME280;65076;52.362;6.588;2022-12-13T01:52:39;101302.84;;;-1.10;68.86
76260;BME280;65076;52.362;6.588;2022-12-13T01:55:11;101300.72;;;-1.55;69.99
76260;BME280;65076;52.362;6.588;2022-12-13T01:57:45;101299.78;;;-1.62;70.11
76260;BME280;65076;52.362;6.588;2022-12-13T02:00:17;101287.53;;;-1.46;70.73
76260;BME280;65076;52.362;6.588;2022-12-13T02:02:46;101297.69;;;-1.99;71.48
76260;BME280;65076;52.362;6.588;2022-12-13T02:05:21;101289.25;;;-1.57;71.45
76260;BME280;65076;52.362;6.588;2022-12-13T02:07:56;101298.84;;;-1.67;72.04
76260;BME280;65076;52.362;6.588;2022-12-13T02:10:27;101288.56;;;-1.24;69.90
76260;BME280;65076;52.362;6.588;2022-12-13T02:12:57;101289.56;;;-1.10;70.42
76260;BME280;65076;52.362;6.588;2022-12-13T02:15:28;101285.13;;;-1.11;71.63
76260;BME280;65076;52.362;6.588;2022-12-13T02:18:17;101282.38;;;-1.26;72.90
76260;BME280;65076;52.362;6.588;2022-12-13T02:21:00;101281.63;;;-1.10;71.62
76260;BME280;65076;52.362;6.588;2022-12-13T02:27:09;101278.19;;;-0.85;70.16
76260;BME280;65076;52.362;6.588;2022-12-13T02:30:20;101284.44;;;-0.77;69.94
76260;BME280;65076;52.362;6.588;2022-12-13T02:33:06;101288.84;;;-0.80;69.87
76260;BME280;65076;52.362;6.588;2022-12-13T02:35:51;101284.44;;;-0.72;69.72
76260;BME280;65076;52.362;6.588;2022-12-13T02:38:33;101283.56;;;-0.74;69.92
76260;BME280;65076;52.362;6.588;2022-12-13T02:41:12;101277.31;;;-0.82;69.14
76260;BME280;65076;52.362;6.588;2022-12-13T02:43:48;101279.94;;;-0.89;69.06
76260;BME280;65076;52.362;6.588;2022-12-13T02:46:32;101278.25;;;-0.74;68.68
76260;BME280;65076;52.362;6.588;2022-12-13T02:49:05;101275.38;;;-1.17;69.08
76260;BME280;65076;52.362;6.588;2022-12-13T02:51:35;101273.50;;;-1.30;71.22
76260;BME280;65076;52.362;6.588;2022-12-13T02:54:05;101279.72;;;-1.28;71.59
76260;BME280;65076;52.362;6.588;2022-12-13T02:56:34;101276.34;;;-1.01;69.78
76260;BME280;65076;52.362;6.588;2022-12-13T02:59:06;101275.41;;;-1.11;69.81
76260;BME280;65076;52.362;6.588;2022-12-13T03:01:48;101277.16;;;-1.11;70.94
76260;BME280;65076;52.362;6.588;2022-12-13T03:04:43;101271.06;;;-0.92;70.84
76260;BME280;65076;52.362;6.588;2022-12-13T03:07:49;101269.34;;;-0.82;71.21
76260;BME280;65076;52.362;6.588;2022-12-13T03:10:32;101273.75;;;-0.89;71.93
76260;BME280;65076;52.362;6.588;2022-12-13T03:13:13;101275.56;;;-0.80;72.06
76260;BME280;65076;52.362;6.588;2022-12-13T03:16:08;101285.06;;;-1.22;73.22
76260;BME280;65076;52.362;6.588;2022-12-13T03:18:50;101279.56;;;-1.49;75.29
76260;BME280;65076;52.362;6.588;2022-12-13T03:21:20;101282.38;;;-1.25;74.68
76260;BME280;65076;52.362;6.588;2022-12-13T03:23:48;101276.31;;;-1.03;74.43
76260;BME280;65076;52.362;6.588;2022-12-13T03:26:20;101268.47;;;-0.83;73.12
76260;BME280;65076;52.362;6.588;2022-12-13T03:28:50;101267.59;;;-0.80;72.35
76260;BME280;65076;52.362;6.588;2022-12-13T03:31:19;101268.50;;;-0.72;72.08
76260;BME280;65076;52.362;6.588;2022-12-13T03:33:49;101272.94;;;-0.74;72.12
76260;BME280;65076;52.362;6.588;2022-12-13T03:36:18;101268.53;;;-0.74;71.38
76260;BME280;65076;52.362;6.588;2022-12-13T03:38:48;101265.81;;;-0.84;70.30
76260;BME280;65076;52.362;6.588;2022-12-13T03:41:20;101268.53;;;-0.74;69.95
76260;BME280;65076;52.362;6.588;2022-12-13T03:43:56;101271.06;;;-0.92;69.13
76260;BME280;65076;52.362;6.588;2022-12-13T03:46:25;101263.16;;;-0.83;68.84
76260;BME280;65076;52.362;6.588;2022-12-13T03:48:54;101273.72;;;-0.92;68.60
76260;BME280;65076;52.362;6.588;2022-12-13T03:51:22;101270.13;;;-1.05;68.54
76260;BME280;65076;52.362;6.588;2022-12-13T03:53:50;101277.25;;;-1.01;68.63
76260;BME280;65076;52.362;6.588;2022-12-13T03:56:18;101270.19;;;-0.96;68.33
76260;BME280;65076;52.362;6.588;2022-12-13T03:58:46;101270.97;;;-1.12;68.63
76260;BME280;65076;52.362;6.588;2022-12-13T04:01:15;101270.13;;;-1.06;68.94
76260;BME280;65076;52.362;6.588;2022-12-13T04:03:45;101277.69;;;-1.62;70.48
76260;BME280;65076;52.362;6.588;2022-12-13T04:06:15;101270.72;;;-1.45;71.88
76260;BME280;65076;52.362;6.588;2022-12-13T04:08:49;101269.16;;;-1.20;72.02
76260;BME280;65076;52.362;6.588;2022-12-13T04:11:18;101270.13;;;-1.02;71.21
76260;BME280;65076;52.362;6.588;2022-12-13T04:14:08;101254.16;;;-1.09;70.67
76260;BME280;65076;52.362;6.588;2022-12-13T04:16:36;101263.84;;;-1.20;70.22
76260;BME280;65076;52.362;6.588;2022-12-13T04:19:04;101261.19;;;-1.19;70.63
76260;BME280;65076;52.362;6.588;2022-12-13T04:21:34;101257.75;;;-1.01;69.83
76260;BME280;65076;52.362;6.588;2022-12-13T04:24:02;101249.69;;;-1.15;69.53
76260;BME280;65076;52.362;6.588;2022-12-13T04:26:30;101250.59;;;-1.10;69.69
76260;BME280;65076;52.362;6.588;2022-12-13T04:28:58;101247.75;;;-1.45;72.28
76260;BME280;65076;52.362;6.588;2022-12-13T04:31:26;101245.31;;;-1.11;71.65
76260;BME280;65076;52.362;6.588;2022-12-13T04:33:54;101241.75;;;-1.13;71.30
76260;BME280;65076;52.362;6.588;2022-12-13T04:36:22;101245.38;;;-0.96;71.89
76260;BME280;65076;52.362;6.588;2022-12-13T04:38:59;101235.63;;;-1.02;71.90
76260;BME280;65076;52.362;6.588;2022-12-13T04:41:27;101238.31;;;-0.94;70.97
76260;BME280;65076;52.362;6.588;2022-12-13T04:44:02;101242.72;;;-0.93;70.56
76260;BME280;65076;52.362;6.588;2022-12-13T04:46:52;101238.34;;;-0.87;71.02
76260;BME280;65076;52.362;6.588;2022-12-13T04:49:27;101242.66;;;-1.13;71.38
76260;BME280;65076;52.362;6.588;2022-12-13T04:51:55;101238.28;;;-1.00;72.01
76260;BME280;65076;52.362;6.588;2022-12-13T04:54:28;101244.44;;;-1.07;72.11
76260;BME280;65076;52.362;6.588;2022-12-13T04:57:06;101243.66;;;-0.91;71.56
76260;BME280;65076;52.362;6.588;2022-12-13T04:59:36;101244.56;;;-0.84;70.94
76260;BME280;65076;52.362;6.588;2022-12-13T05:02:07;101247.94;;;-1.10;70.96
76260;BME280;65076;52.362;6.588;2022-12-13T05:04:37;101250.69;;;-0.98;70.94
76260;BME280;65076;52.362;6.588;2022-12-13T05:07:05;101250.66;;;-1.02;70.92
76260;BME280;65076;52.362;6.588;2022-12-13T05:09:34;101252.13;;;-1.53;72.99
76260;BME280;65076;52.362;6.588;2022-12-13T05:12:02;101238.22;;;-1.15;72.78
76260;BME280;65076;52.362;6.588;2022-12-13T05:14:47;101236.41;;;-1.22;72.21
76260;BME280;65076;52.362;6.588;2022-12-13T05:17:15;101239.78;;;-1.48;73.67
76260;BME280;65076;52.362;6.588;2022-12-13T05:19:43;101236.31;;;-1.36;72.50
76260;BME280;65076;52.362;6.588;2022-12-13T05:22:11;101231.16;;;-1.10;72.65
76260;BME280;65076;52.362;6.588;2022-12-13T05:24:47;101234.69;;;-1.11;72.08
76260;BME280;65076;52.362;6.588;2022-12-13T05:27:16;101235.50;;;-1.23;72.06
76260;BME280;65076;52.362;6.588;2022-12-13T05:29:52;101248.41;;;-1.76;73.57
76260;BME280;65076;52.362;6.588;2022-12-13T05:32:31;101248.53;;;-1.59;74.91
76260;BME280;65076;52.362;6.588;2022-12-13T05:35:10;101246.59;;;-1.77;74.84
76260;BME280;65076;52.362;6.588;2022-12-13T05:37:39;101247.53;;;-1.74;74.19
76260;BME280;65076;52.362;6.588;2022-12-13T05:40:09;101243.25;;;-1.58;73.99
76260;BME280;65076;52.362;6.588;2022-12-13T05:42:38;101241.22;;;-1.91;74.00
76260;BME280;65076;52.362;6.588;2022-12-13T05:45:07;101241.28;;;-1.80;74.05
76260;BME280;65076;52.362;6.588;2022-12-13T05:47:35;101232.78;;;-1.34;73.61
76260;BME280;65076;52.362;6.588;2022-12-13T05:50:04;101240.81;;;-1.26;72.50
76260;BME280;65076;52.362;6.588;2022-12-13T05:52:33;101235.31;;;-1.53;72.24
76260;BME280;65076;52.362;6.588;2022-12-13T05:55:00;101234.47;;;-1.45;73.46
76260;BME280;65076;52.362;6.588;2022-12-13T05:57:30;101231.69;;;-1.61;73.61
76260;BME280;65076;52.362;6.588;2022-12-13T05:59:59;101229.19;;;-1.40;72.93
76260;BME280;65076;52.362;6.588;2022-12-13T06:02:27;101236.25;;;-1.45;73.13
76260;BME280;65076;52.362;6.588;2022-12-13T06:04:55;101238.03;;;-1.47;72.85
76260;BME280;65076;52.362;6.588;2022-12-13T06:07:23;101229.88;;;-1.67;73.25
76260;BME280;65076;52.362;6.588;2022-12-13T06:09:51;101230.00;;;-1.53;73.08
76260;BME280;65076;52.362;6.588;2022-12-13T06:12:37;101229.03;;;-1.66;73.35
76260;BME280;65076;52.362;6.588;2022-12-13T06:15:09;101229.84;;;-1.76;73.81
76260;BME280;65076;52.362;6.588;2022-12-13T06:17:48;101228.16;;;-1.62;73.61
76260;BME280;65076;52.362;6.588;2022-12-13T06:20:16;101230.09;;;-1.43;72.76
76260;BME280;65076;52.362;6.588;2022-12-13T06:22:50;101230.91;;;-1.50;72.57
76260;BME280;65076;52.362;6.588;2022-12-13T06:25:17;101220.28;;;-1.50;72.73
76260;BME280;65076;52.362;6.588;2022-12-13T06:27:58;101223.75;;;-1.63;73.22
76260;BME280;65076;52.362;6.588;2022-12-13T06:30:27;101224.50;;;-1.81;73.47
76260;BME280;65076;52.362;6.588;2022-12-13T06:32:55;101232.34;;;-1.93;74.37
76260;BME280;65076;52.362;6.588;2022-12-13T06:35:23;101224.56;;;-1.72;73.74
76260;BME280;65076;52.362;6.588;2022-12-13T06:37:55;101216.66;;;-1.64;73.62
76260;BME280;65076;52.362;6.588;2022-12-13T06:40:27;101223.38;;;-2.08;75.04
76260;BME280;65076;52.362;6.588;2022-12-13T06:42:56;101226.34;;;-1.71;74.26
76260;BME280;65076;52.362;6.588;2022-12-13T06:45:25;101222.69;;;-1.85;73.78
76260;BME280;65076;52.362;6.588;2022-12-13T06:47:54;101214.97;;;-1.51;73.99
76260;BME280;65076;52.362;6.588;2022-12-13T06:50:22;101222.91;;;-1.57;72.81
76260;BME280;65076;52.362;6.588;2022-12-13T06:52:50;101226.56;;;-1.39;73.29
76260;BME280;65076;52.362;6.588;2022-12-13T06:55:18;101227.09;;;-1.90;73.34
76260;BME280;65076;52.362;6.588;2022-12-13T06:57:49;101225.56;;;-1.56;73.58
76260;BME280;65076;52.362;6.588;2022-12-13T07:00:18;101228.25;;;-1.53;73.06
76260;BME280;65076;52.362;6.588;2022-12-13T07:02:52;101223.88;;;-1.45;73.03
76260;BME280;65076;52.362;6.588;2022-12-13T07:05:21;101230.13;;;-1.37;72.95
76260;BME280;65076;52.362;6.588;2022-12-13T07:07:50;101235.41;;;-1.40;72.94
76260;BME280;65076;52.362;6.588;2022-12-13T07:10:18;101234.59;;;-1.31;72.51
76260;BME280;65076;52.362;6.588;2022-12-13T07:12:48;101226.56;;;-1.36;72.67
76260;BME280;65076;52.362;6.588;2022-12-13T07:15:17;101232.84;;;-1.24;72.53
76260;BME280;65076;52.362;6.588;2022-12-13T07:17:48;101230.19;;;-1.20;72.26
76260;BME280;65076;52.362;6.588;2022-12-13T07:20:28;101217.84;;;-1.21;71.92
76260;BME280;65076;52.362;6.588;2022-12-13T07:22:56;101222.22;;;-1.24;72.20
76260;BME280;65076;52.362;6.588;2022-12-13T07:25:24;101222.22;;;-1.23;71.80
76260;BME280;65076;52.362;6.588;2022-12-13T07:27:57;101220.53;;;-1.09;71.86
76260;BME280;65076;52.362;6.588;2022-12-13T07:30:29;101221.31;;;-1.28;71.90
76260;BME280;65076;52.362;6.588;2022-12-13T07:32:59;101231.16;;;-1.10;71.89
76260;BME280;65076;52.362;6.588;2022-12-13T07:35:30;101229.38;;;-1.16;71.56
76260;BME280;65076;52.362;6.588;2022-12-13T07:38:03;101223.09;;;-1.24;72.26
76260;BME280;65076;52.362;6.588;2022-12-13T07:40:32;101239.00;;;-1.29;72.23
76260;BME280;65076;52.362;6.588;2022-12-13T07:43:00;101233.81;;;-1.09;71.71
76260;BME280;65076;52.362;6.588;2022-12-13T07:45:29;101232.94;;;-1.06;71.13
76260;BME280;65076;52.362;6.588;2022-12-13T07:47:57;101239.06;;;-1.15;71.62
76260;BME280;65076;52.362;6.588;2022-12-13T07:50:26;101240.09;;;-0.93;71.21
76260;BME280;65076;52.362;6.588;2022-12-13T07:53:06;101232.97;;;-0.99;72.43
76260;BME280;65076;52.362;6.588;2022-12-13T07:55:36;101233.00;;;-1.00;71.96
76260;BME280;65076;52.362;6.588;2022-12-13T07:58:06;101235.75;;;-0.67;72.21
76260;BME280;65076;52.362;6.588;2022-12-13T08:00:35;101237.66;;;-0.29;70.88
76260;BME280;65076;52.362;6.588;2022-12-13T08:03:04;101235.03;;;-0.07;68.62
76260;BME280;65076;52.362;6.588;2022-12-13T08:05:33;101243.91;;;0.00;67.56
76260;BME280;65076;52.362;6.588;2022-12-13T08:08:07;101244.81;;;0.10;66.45
76260;BME280;65076;52.362;6.588;2022-12-13T08:10:37;101248.34;;;0.51;66.13
76260;BME280;65076;52.362;6.588;2022-12-13T08:13:05;101240.22;;;1.06;64.79
76260;BME280;65076;52.362;6.588;2022-12-13T08:15:33;101241.13;;;1.08;63.30
76260;BME280;65076;52.362;6.588;2022-12-13T08:18:01;101229.41;;;1.50;62.10
76260;BME280;65076;52.362;6.588;2022-12-13T08:20:29;101241.94;;;1.30;61.71
76260;BME280;65076;52.362;6.588;2022-12-13T08:22:58;101237.41;;;1.50;61.41
76260;BME280;65076;52.362;6.588;2022-12-13T08:25:29;101235.44;;;1.81;59.92
76260;BME280;65076;52.362;6.588;2022-12-13T08:27:58;101235.44;;;2.86;58.96
76260;BME280;65076;52.362;6.588;2022-12-13T08:30:27;101242.09;;;3.25;56.97
76260;BME280;65076;52.362;6.588;2022-12-13T08:32:56;101237.91;;;3.04;56.08
76260;BME280;65076;52.362;6.588;2022-12-13T08:35:30;101239.53;;;3.84;56.60
76260;BME280;65076;52.362;6.588;2022-12-13T08:38:00;101239.47;;;4.46;54.01
76260;BME280;65076;52.362;6.588;2022-12-13T08:40:30;101242.38;;;4.83;53.80
76260;BME280;65076;52.362;6.588;2022-12-13T08:42:59;101241.47;;;4.84;52.81
76260;BME280;65076;52.362;6.588;2022-12-13T08:45:28;101241.28;;;4.93;53.13
76260;BME280;65076;52.362;6.588;2022-12-13T08:47:57;101240.34;;;5.40;51.60
76260;BME280;65076;52.362;6.588;2022-12-13T08:50:26;101238.66;;;5.77;50.74
76260;BME280;65076;52.362;6.588;2022-12-13T08:52:56;101238.09;;;5.20;51.91
76260;BME280;65076;52.362;6.588;2022-12-13T08:55:25;101239.63;;;5.75;51.32
76260;BME280;65076;52.362;6.588;2022-12-13T08:58:03;101253.50;;;5.09;51.58
76260;BME280;65076;52.362;6.588;2022-12-13T09:00:34;101249.81;;;5.15;50.95
76260;BME280;65076;52.362;6.588;2022-12-13T09:03:03;101252.31;;;4.78;52.94
76260;BME280;65076;52.362;6.588;2022-12-13T09:05:36;101248.03;;;5.13;51.81
76260;BME280;65076;52.362;6.588;2022-12-13T09:08:04;101243.44;;;6.05;49.66
76260;BME280;65076;52.362;6.588;2022-12-13T09:10:56;101246.91;;;6.10;49.73
76260;BME280;65076;52.362;6.588;2022-12-13T09:13:27;101250.38;;;6.15;49.71
76260;BME280;65076;52.362;6.588;2022-12-13T09:16:03;101244.91;;;5.78;49.65
76260;BME280;65076;52.362;6.588;2022-12-13T09:18:48;101255.84;;;6.10;49.53
76260;BME280;65076;52.362;6.588;2022-12-13T09:21:21;101261.13;;;6.13;49.62
76260;BME280;65076;52.362;6.588;2022-12-13T09:23:57;101267.84;;;5.94;49.61
76260;BME280;65076;52.362;6.588;2022-12-13T09:26:27;101270.19;;;4.77;52.60
76260;BME280;65076;52.362;6.588;2022-12-13T09:29:05;101275.50;;;4.80;53.76
76260;BME280;65076;52.362;6.588;2022-12-13T09:31:36;101279.16;;;4.21;54.95
76260;BME280;65076;52.362;6.588;2022-12-13T09:34:06;101273.44;;;4.96;53.24
76260;BME280;65076;52.362;6.588;2022-12-13T09:36:34;101269.66;;;4.55;53.85
76260;BME280;65076;52.362;6.588;2022-12-13T09:39:03;101273.72;;;3.66;57.19
76260;BME280;65076;52.362;6.588;2022-12-13T09:41:33;101269.91;;;3.13;57.64
76260;BME280;65076;52.362;6.588;2022-12-13T09:44:15;101280.03;;;2.81;58.40
76260;BME280;65076;52.362;6.588;2022-12-13T09:47:00;101280.72;;;3.01;59.33
76260;BME280;65076;52.362;6.588;2022-12-13T09:49:40;101286.63;;;2.37;62.13
76260;BME280;65076;52.362;6.588;2022-12-13T09:52:21;101278.31;;;2.74;60.92
76260;BME280;65076;52.362;6.588;2022-12-13T09:54:59;101271.84;;;2.94;60.76
76260;BME280;65076;52.362;6.588;2022-12-13T09:57:33;101269.28;;;2.85;61.13
76260;BME280;65076;52.362;6.588;2022-12-13T10:00:04;101274.13;;;2.42;61.75
76260;BME280;65076;52.362;6.588;2022-12-13T10:02:41;101267.16;;;2.25;63.88
76260;BME280;65076;52.362;6.588;2022-12-13T10:05:18;101262.41;;;2.60;62.33
76260;BME280;65076;52.362;6.588;2022-12-13T10:08:05;101250.94;;;3.33;59.56
76260;BME280;65076;52.362;6.588;2022-12-13T10:10:36;101240.19;;;3.36;59.76
76260;BME280;65076;52.362;6.588;2022-12-13T10:13:12;101240.50;;;3.82;58.46
76260;BME280;65076;52.362;6.588;2022-12-13T10:15:48;101240.94;;;4.10;56.67
76260;BME280;65076;52.362;6.588;2022-12-13T10:18:24;101241.56;;;2.94;59.37
76260;BME280;65076;52.362;6.588;2022-12-13T10:21:00;101227.97;;;3.15;59.89
76260;BME280;65076;52.362;6.588;2022-12-13T10:23:32;101219.00;;;3.21;59.90
76260;BME280;65076;52.362;6.588;2022-12-13T10:26:20;101227.72;;;3.99;58.00
76260;BME280;65076;52.362;6.588;2022-12-13T10:29:00;101226.47;;;3.62;59.56
76260;BME280;65076;52.362;6.588;2022-12-13T10:31:38;101231.03;;;2.80;60.08
76260;BME280;65076;52.362;6.588;2022-12-13T10:34:20;101219.09;;;3.82;59.77
76260;BME280;65076;52.362;6.588;2022-12-13T10:36:50;101225.84;;;4.04;58.13
76260;BME280;65076;52.362;6.588;2022-12-13T10:39:36;101226.75;;;3.44;58.95
76260;BME280;65076;52.362;6.588;2022-12-13T10:42:11;101226.72;;;4.08;58.53
76260;BME280;65076;52.362;6.588;2022-12-13T10:44:48;101217.97;;;3.97;58.53
76260;BME280;65076;52.362;6.588;2022-12-13T10:47:33;101220.56;;;4.03;58.79
76260;BME280;65076;52.362;6.588;2022-12-13T10:50:02;101213.63;;;4.43;58.76
76260;BME280;65076;52.362;6.588;2022-12-13T10:52:32;101212.13;;;4.24;57.95
76260;BME280;65076;52.362;6.588;2022-12-13T10:55:23;101209.97;;;3.94;59.30
76260;BME280;65076;52.362;6.588;2022-12-13T10:57:57;101206.38;;;3.95;58.94
76260;BME280;65076;52.362;6.588;2022-12-13T11:00:36;101211.81;;;3.89;59.28
76260;BME280;65076;52.362;6.588;2022-12-13T11:03:11;101209.66;;;4.13;58.08
76260;BME280;65076;52.362;6.588;2022-12-13T11:06:01;101209.38;;;4.30;57.49
76260;BME280;65076;52.362;6.588;2022-12-13T11:08:31;101198.63;;;4.33;57.37
76260;BME280;65076;52.362;6.588;2022-12-13T11:11:01;101193.47;;;4.21;58.36
76260;BME280;65076;52.362;6.588;2022-12-13T11:13:35;101190.94;;;4.13;57.45
76260;BME280;65076;52.362;6.588;2022-12-13T11:16:19;101188.44;;;4.00;57.97
76260;BME280;65076;52.362;6.588;2022-12-13T11:18:53;101197.59;;;3.87;58.13
76260;BME280;65076;52.362;6.588;2022-12-13T11:21:25;101188.34;;;4.59;57.75
76260;BME280;65076;52.362;6.588;2022-12-13T11:23:56;101177.19;;;4.33;58.89
76260;BME280;65076;52.362;6.588;2022-12-13T11:26:28;101183.34;;;3.84;57.70
76260;BME280;65076;52.362;6.588;2022-12-13T11:29:19;101177.66;;;3.46;60.33
76260;BME280;65076;52.362;6.588;2022-12-13T11:32:03;101176.75;;;3.49;61.34
76260;BME280;65076;52.362;6.588;2022-12-13T11:34:53;101177.03;;;3.27;60.86
76260;BME280;65076;52.362;6.588;2022-12-13T11:37:41;101169.47;;;2.91;62.37
76260;BME280;65076;52.362;6.588;2022-12-13T11:40:19;101171.00;;;3.74;60.17
76260;BME280;65076;52.362;6.588;2022-12-13T11:42:54;101165.72;;;3.71;59.31
76260;BME280;65076;52.362;6.588;2022-12-13T11:45:28;101161.69;;;3.98;59.11
76260;BME280;65076;52.362;6.588;2022-12-13T11:48:04;101155.47;;;4.48;58.18
76260;BME280;65076;52.362;6.588;2022-12-13T11:50:46;101158.97;;;4.03;59.26
76260;BME280;65076;52.362;6.588;2022-12-13T11:53:21;101156.97;;;4.14;58.74
76260;BME280;65076;52.362;6.588;2022-12-13T11:55:59;101155.41;;;4.51;58.43
76260;BME280;65076;52.362;6.588;2022-12-13T11:58:38;101154.59;;;4.49;58.27
76260;BME280;65076;52.362;6.588;2022-12-13T12:01:33;101144.19;;;4.79;57.19
76260;BME280;65076;52.362;6.588;2022-12-13T12:04:12;101146.03;;;4.29;57.01
76260;BME280;65076;52.362;6.588;2022-12-13T12:06:52;101143.38;;;4.28;56.70
76260;BME280;65076;52.362;6.588;2022-12-13T12:09:48;101139.91;;;4.21;57.46
76260;BME280;65076;52.362;6.588;2022-12-13T12:12:29;101137.41;;;4.10;58.08
76260;BME280;65076;52.362;6.588;2022-12-13T12:15:01;101141.59;;;4.73;56.68
76260;BME280;65076;52.362;6.588;2022-12-13T12:17:42;101140.34;;;3.97;57.32
76260;BME280;65076;52.362;6.588;2022-12-13T12:20:12;101146.78;;;3.83;57.59
76260;BME280;65076;52.362;6.588;2022-12-13T12:22:57;101129.09;;;4.27;58.11
76260;BME280;65076;52.362;6.588;2022-12-13T12:25:41;101136.75;;;3.98;58.45
76260;BME280;65076;52.362;6.588;2022-12-13T12:28:23;101134.72;;;4.12;58.46
76260;BME280;65076;52.362;6.588;2022-12-13T12:31:14;101131.19;;;3.53;58.92
76260;BME280;65076;52.362;6.588;2022-12-13T12:33:55;101131.09;;;3.61;59.89
76260;BME280;65076;52.362;6.588;2022-12-13T12:36:41;101136.06;;;3.83;59.67
76260;BME280;65076;52.362;6.588;2022-12-13T12:39:42;101123.91;;;3.64;59.04
76260;BME280;65076;52.362;6.588;2022-12-13T12:42:29;101126.72;;;4.09;58.17
76260;BME280;65076;52.362;6.588;2022-12-13T12:45:35;101125.72;;;4.63;57.10
76260;BME280;65076;52.362;6.588;2022-12-13T12:48:40;101127.78;;;3.99;57.20
76260;BME280;65076;52.362;6.588;2022-12-13T12:51:37;101127.94;;;4.86;55.04
76260;BME280;65076;52.362;6.588;2022-12-13T12:54:26;101129.25;;;4.65;54.88
76260;BME280;65076;52.362;6.588;2022-12-13T12:57:14;101125.31;;;5.25;53.86
76260;BME280;65076;52.362;6.588;2022-12-13T12:59:57;101133.78;;;5.06;54.41
76260;BME280;65076;52.362;6.588;2022-12-13T13:02:37;101128.69;;;4.93;54.86
76260;BME280;65076;52.362;6.588;2022-12-13T13:05:14;101114.22;;;5.41;54.59
76260;BME280;65076;52.362;6.588;2022-12-13T13:07:53;101112.47;;;5.77;54.08
76260;BME280;65076;52.362;6.588;2022-12-13T13:10:27;101115.81;;;4.67;55.33
76260;BME280;65076;52.362;6.588;2022-12-13T13:12:55;101118.47;;;5.50;54.37
76260;BME280;65076;52.362;6.588;2022-12-13T13:15:55;101111.53;;;5.01;55.01
76260;BME280;65076;52.362;6.588;2022-12-13T13:18:44;101117.69;;;5.06;55.24
76260;BME280;65076;52.362;6.588;2022-12-13T13:21:31;101123.06;;;5.46;53.98
76260;BME280;65076;52.362;6.588;2022-12-13T13:24:14;101125.22;;;5.69;54.22
76260;BME280;65076;52.362;6.588;2022-12-13T13:26:48;101119.22;;;5.97;52.86
76260;BME280;65076;52.362;6.588;2022-12-13T13:29:38;101115.16;;;6.48;51.24
76260;BME280;65076;52.362;6.588;2022-12-13T13:32:26;101123.88;;;5.08;55.51
76260;BME280;65076;52.362;6.588;2022-12-13T13:38:28;101110.44;;;6.89;50.96
76260;BME280;65076;52.362;6.588;2022-12-13T13:41:40;101110.75;;;7.07;50.49